ADDS METAR Data INFO
IDs: Format: Raw Decoded Include TAF

Data at: 0749 UTC 17 Oct 2017

PHKO 170653Z 04006KT 10SM SCT033 26/16 A2998 RMK AO2 SLP153 T02610161
PHKO 170553Z 06006KT 10SM SCT050 27/18 A2995 RMK AO2 SLP141 T02720178 10306 20267 53028
PHKO 170453Z COR 13009KT 10SM SCT048 27/18 A2992 RMK AO2 SLP131 T02720183
PHKO 170353Z COR 13009KT 10SM FEW050 SCT085CLR 28/18 A2989
PHKO 170253Z 15010KT 10SM FEW050 FEW075 29/18 A2987 RMK AO2 SLP114 T02940183 53003
PHKO 170153Z 17012KT 10SM FEW050 FEW080 30/18 A2985 RMK AO2 SLP109 T03000178
PHKO 170053Z 18012KT 10SM FEW075 SCT090 30/19 A2985 RMK AO2 SLP109 T03000194
PHKO 162353Z 18010KT 10SM FEW055 SCT085 29/19 A2986 RMK AO2 SLP111 T02940189 10306 20261 58022
PHKO 162253Z 23009KT 10SM SCT055 30/19 A2988 RMK AO2 SLP119 T03000189
PHKO 162153Z 20010KT 10SM FEW055 29/19 A2990 RMK AO2 SLP126 T02940194
PHKO 162053Z 21007KT 10SM FEW055 29/19 A2992 RMK AO2 SLP133 T02890194 50001
PHKO 161953Z 22007KT 10SM FEW040 SCT070 28/19 A2993 RMK AO2 SLP135 T02830189
PHKO 161853Z 19004KT 10SM FEW045 SCT070 28/19 A2992 RMK AO2 SLP132 T02780194
PHKO 161753Z 11005KT 10SM FEW045 SCT070 26/19 A2992 RMK AO2 SLP132 T02610194 10261 20244 53012
PHKO 161653Z 03009KT 10SM CLR 24/18 A2990 RMK AO2 SLP126 T02440183
PHKO 161553Z 07005KT 10SM SCT048 BKN070 26/19 A2989 RMK AO2 SLP120 T02560189
PHKO 161453Z AUTO 04005KT 10SM OVC034 25/18 A2988 RMK AO2 SLP120 T02500183 53001 TSNO
PHKO 161353Z AUTO 11005KT 10SM CLR 24/19 A2985 RMK AO2 SLP109 T02440189 TSNO
PHKO 161253Z AUTO 00000KT 10SM FEW034 FEW065 25/18 A2987 RMK AO2 SLP114 T02500183 TSNO
PHKO 161153Z AUTO 11007KT 10SM SCT040 26/21 A2988 RMK AO2 SLP120 60000 T02560206 10272 20250 56011 TSNO
PHKO 161053Z AUTO 13011G18KT 10SM SCT030 BKN039 26/21 A2990 RMK AO2 RAB41E50 SLP124 P0000 T02610206 TSNO
PHKO 160953Z AUTO 06005KT 10SM BKN038 26/19 A2990 RMK AO2 SLP125 T02610194 403110244 TSNO
PHKO 160853Z AUTO 04008KT 10SM BKN030 OVC039 27/17 A2991 RMK AO2 SLP130 T02670167 50009 TSNO
PHKO 160753Z 04006KT 10SM FEW031 FEW039 SCT048 26/19 A2993 RMK AO2 SLP134 T02610194
PHKO 160653Z 06006KT 10SM FEW031 SCT055 27/20 A2992 RMK AO2 SLP132 T02670200
PHKO 160553Z 12008KT 10SM FEW035 27/21 A2989 RMK AO2 SLP121 T02670206 10300 20267 53017
PHKO 160453Z 13009KT 10SM FEW035 27/21 A2986 RMK AO2 SLP112 T02720206
PHKO 160353Z 14011KT 10SM FEW026 SCT036 28/22 A2985 RMK AO2 SLP108 T02830217
PHKO 160253Z 20009KT 10SM FEW055 SCT070 29/22 A2984 RMK AO2 SLP104 T02890217 53003
PHKO 160153Z 21010KT 10SM SCT049 SCT160 29/22 A2983 RMK AO2 SLP100 T02940222
PHKO 160053Z 19010KT 10SM SCT055 SCT170 29/22 A2982 RMK AO2 SLP098 T02940217
PHKO 152353Z COR 18011KT 10SM FEW045 SCT070 SCT100 30/21 A2983 RMK AO2 SLP101 T03000211 10311 20272 56026
PHKO 152253Z 18009KT 10SM FEW045 SCT070 BKN150 29/21 A2985 RMK AO2 SLP108 T02940211
PHKO 152153Z 17009KT 10SM FEW045 SCT060 BKN150 29/22 A2988 RMK AO2 SLP119 T02890217
PHKO 152053Z 24006KT 10SM FEW035 SCT060 28/21 A2990 RMK AO2 SLP127 T02830206 50000
PHKO 151953Z 30006KT 10SM SCT050 SCT150 29/20 A2992 RMK AO2 SLP130 T02890200